Gramercy, Louisiana
Current Conditions -  °F | °C
As of 4:15 PM on Wednesday 28 Jan 2015 (Local Time) from K1L0 Reporting Station
Clear Clear  
Wind Chill: 67°   Ceiling: Unl
Heat Index: 67°   Visibility: 10mi
Dew Point: 41°   Wind: 5mph
Humidity: 40%   Direction: 100°E
Pressure: 30.22"   Gusts: NA
Location:  30.05°N, 90.69°W
Report Text: K1L0 282215Z AUTO 10004KT 10SM CLR 19/05 A3022 RMK AO2 T01920051
Loading
Personal Weather Stations






























Interactive Weather Map New forecast layout! Learn more

10-Day Weather Forecast

Advertisements
Track Severe Weather on mobile